sensor_id;sensor_type;location;lat;lon;timestamp;temperature;humidity
5200;DHT22;2619;47.868;11.892;2023-02-23T00:00:30;4.90;99.90
5200;DHT22;2619;47.868;11.892;2023-02-23T00:02:58;5.20;99.90
5200;DHT22;2619;47.868;11.892;2023-02-23T00:05:27;5.30;99.90
5200;DHT22;2619;47.868;11.892;2023-02-23T00:07:53;5.30;99.90
5200;DHT22;2619;47.868;11.892;2023-02-23T00:10:19;5.30;99.90
5200;DHT22;2619;47.868;11.892;2023-02-23T00:12:46;5.40;99.90
5200;DHT22;2619;47.868;11.892;2023-02-23T00:15:11;5.40;99.90
5200;DHT22;2619;47.868;11.892;2023-02-23T00:17:37;5.40;99.90
5200;DHT22;2619;47.868;11.892;2023-02-23T00:20:07;5.50;99.90
5200;DHT22;2619;47.868;11.892;2023-02-23T00:22:40;5.70;99.90
5200;DHT22;2619;47.868;11.892;2023-02-23T00:25:07;6.00;99.90
5200;DHT22;2619;47.868;11.892;2023-02-23T00:27:35;6.00;99.90
5200;DHT22;2619;47.868;11.892;2023-02-23T00:30:03;6.00;99.90
5200;DHT22;2619;47.868;11.892;2023-02-23T00:32:28;6.00;99.90
5200;DHT22;2619;47.868;11.892;2023-02-23T00:34:54;6.00;99.90
5200;DHT22;2619;47.868;11.892;2023-02-23T00:37:20;6.00;99.90
5200;DHT22;2619;47.868;11.892;2023-02-23T00:39:47;6.00;99.90
5200;DHT22;2619;47.868;11.892;2023-02-23T00:42:13;6.10;99.90
5200;DHT22;2619;47.868;11.892;2023-02-23T00:44:38;6.20;99.90
5200;DHT22;2619;47.868;11.892;2023-02-23T00:47:05;6.30;99.90
5200;DHT22;2619;47.868;11.892;2023-02-23T00:49:31;6.20;99.90
5200;DHT22;2619;47.868;11.892;2023-02-23T00:51:57;6.20;99.90
5200;DHT22;2619;47.868;11.892;2023-02-23T00:54:23;6.20;99.90
5200;DHT22;2619;47.868;11.892;2023-02-23T00:56:49;6.30;99.90
5200;DHT22;2619;47.868;11.892;2023-02-23T00:59:14;6.50;99.90
5200;DHT22;2619;47.868;11.892;2023-02-23T01:01:40;6.60;99.90
5200;DHT22;2619;47.868;11.892;2023-02-23T01:04:06;6.70;99.90
5200;DHT22;2619;47.868;11.892;2023-02-23T01:06:33;6.80;99.90
5200;DHT22;2619;47.868;11.892;2023-02-23T01:09:06;6.90;99.90
5200;DHT22;2619;47.868;11.892;2023-02-23T01:11:33;6.90;99.90
5200;DHT22;2619;47.868;11.892;2023-02-23T01:14:00;6.90;99.90
5200;DHT22;2619;47.868;11.892;2023-02-23T01:16:28;6.80;99.90
5200;DHT22;2619;47.868;11.892;2023-02-23T01:18:56;6.80;99.90
5200;DHT22;2619;47.868;11.892;2023-02-23T01:21:24;6.80;99.90
5200;DHT22;2619;47.868;11.892;2023-02-23T01:23:51;6.70;99.90
5200;DHT22;2619;47.868;11.892;2023-02-23T01:26:32;6.70;99.90
5200;DHT22;2619;47.868;11.892;2023-02-23T01:29:06;6.80;99.90
5200;DHT22;2619;47.868;11.892;2023-02-23T01:31:37;6.80;99.90
5200;DHT22;2619;47.868;11.892;2023-02-23T01:34:04;6.80;99.90
5200;DHT22;2619;47.868;11.892;2023-02-23T01:36:33;6.90;99.90
5200;DHT22;2619;47.868;11.892;2023-02-23T01:38:59;6.80;99.90
5200;DHT22;2619;47.868;11.892;2023-02-23T01:41:26;6.70;99.90
5200;DHT22;2619;47.868;11.892;2023-02-23T01:43:59;6.70;99.90
5200;DHT22;2619;47.868;11.892;2023-02-23T01:46:26;6.80;99.90
5200;DHT22;2619;47.868;11.892;2023-02-23T01:48:53;6.70;99.90
5200;DHT22;2619;47.868;11.892;2023-02-23T01:51:24;6.70;99.90
5200;DHT22;2619;47.868;11.892;2023-02-23T01:53:56;6.60;99.90
5200;DHT22;2619;47.868;11.892;2023-02-23T01:56:26;6.70;99.90
5200;DHT22;2619;47.868;11.892;2023-02-23T01:58:55;6.60;99.90
5200;DHT22;2619;47.868;11.892;2023-02-23T02:01:22;6.70;99.90
5200;DHT22;2619;47.868;11.892;2023-02-23T02:03:52;6.80;99.90
5200;DHT22;2619;47.868;11.892;2023-02-23T02:06:21;6.80;99.90
5200;DHT22;2619;47.868;11.892;2023-02-23T02:08:50;6.80;99.90
5200;DHT22;2619;47.868;11.892;2023-02-23T02:11:20;6.70;99.90
5200;DHT22;2619;47.868;11.892;2023-02-23T02:17:13;6.60;99.90
5200;DHT22;2619;47.868;11.892;2023-02-23T02:20:08;6.40;99.90
5200;DHT22;2619;47.868;11.892;2023-02-23T02:25:41;6.10;99.90
5200;DHT22;2619;47.868;11.892;2023-02-23T02:28:36;6.10;99.90
5200;DHT22;2619;47.868;11.892;2023-02-23T02:33:57;6.00;99.90
5200;DHT22;2619;47.868;11.892;2023-02-23T02:45:07;6.30;99.90
5200;DHT22;2619;47.868;11.892;2023-02-23T02:47:52;6.40;99.90
5200;DHT22;2619;47.868;11.892;2023-02-23T02:53:07;6.70;99.90
5200;DHT22;2619;47.868;11.892;2023-02-23T02:55:36;6.80;99.90
5200;DHT22;2619;47.868;11.892;2023-02-23T02:58:05;6.90;99.90
5200;DHT22;2619;47.868;11.892;2023-02-23T03:00:45;7.00;99.90
5200;DHT22;2619;47.868;11.892;2023-02-23T03:03:47;7.10;99.90
5200;DHT22;2619;47.868;11.892;2023-02-23T03:06:45;7.20;99.90
5200;DHT22;2619;47.868;11.892;2023-02-23T03:09:53;7.30;99.90
5200;DHT22;2619;47.868;11.892;2023-02-23T03:13:17;7.40;99.90
5200;DHT22;2619;47.868;11.892;2023-02-23T03:19:35;7.60;99.90
5200;DHT22;2619;47.868;11.892;2023-02-23T03:22:29;7.70;99.90
5200;DHT22;2619;47.868;11.892;2023-02-23T03:25:18;7.80;99.90
5200;DHT22;2619;47.868;11.892;2023-02-23T03:28:12;7.80;99.90
5200;DHT22;2619;47.868;11.892;2023-02-23T03:34:04;8.00;99.90
5200;DHT22;2619;47.868;11.892;2023-02-23T03:37:02;8.00;99.90
5200;DHT22;2619;47.868;11.892;2023-02-23T03:39:53;8.00;99.90
5200;DHT22;2619;47.868;11.892;2023-02-23T03:42:40;8.10;99.90
5200;DHT22;2619;47.868;11.892;2023-02-23T03:45:27;8.00;99.90
5200;DHT22;2619;47.868;11.892;2023-02-23T03:48:12;8.00;99.90
5200;DHT22;2619;47.868;11.892;2023-02-23T03:51:03;8.10;99.90
5200;DHT22;2619;47.868;11.892;2023-02-23T03:54:11;8.00;99.90
5200;DHT22;2619;47.868;11.892;2023-02-23T03:56:58;8.00;99.90
5200;DHT22;2619;47.868;11.892;2023-02-23T03:59:47;7.90;99.90
5200;DHT22;2619;47.868;11.892;2023-02-23T04:02:36;8.00;99.90
5200;DHT22;2619;47.868;11.892;2023-02-23T04:05:21;8.00;99.90
5200;DHT22;2619;47.868;11.892;2023-02-23T04:08:10;8.00;99.90
5200;DHT22;2619;47.868;11.892;2023-02-23T04:11:01;8.00;99.90
5200;DHT22;2619;47.868;11.892;2023-02-23T04:13:53;8.00;99.90
5200;DHT22;2619;47.868;11.892;2023-02-23T04:16:23;7.90;99.90
5200;DHT22;2619;47.868;11.892;2023-02-23T04:18:48;7.90;99.90
5200;DHT22;2619;47.868;11.892;2023-02-23T04:21:14;7.90;99.90
5200;DHT22;2619;47.868;11.892;2023-02-23T04:23:40;7.80;99.90
5200;DHT22;2619;47.868;11.892;2023-02-23T04:26:06;7.80;99.90
5200;DHT22;2619;47.868;11.892;2023-02-23T04:28:32;7.80;99.90
5200;DHT22;2619;47.868;11.892;2023-02-23T04:30:57;7.80;99.90
5200;DHT22;2619;47.868;11.892;2023-02-23T04:33:23;7.80;99.90
5200;DHT22;2619;47.868;11.892;2023-02-23T04:35:52;7.80;99.90
5200;DHT22;2619;47.868;11.892;2023-02-23T04:38:18;7.80;99.90
5200;DHT22;2619;47.868;11.892;2023-02-23T04:40:44;7.80;99.90
5200;DHT22;2619;47.868;11.892;2023-02-23T04:43:11;7.80;99.90
5200;DHT22;2619;47.868;11.892;2023-02-23T04:45:37;7.70;99.90
5200;DHT22;2619;47.868;11.892;2023-02-23T04:48:03;7.60;99.90
5200;DHT22;2619;47.868;11.892;2023-02-23T04:50:29;7.60;99.90
5200;DHT22;2619;47.868;11.892;2023-02-23T04:52:54;7.60;99.90
5200;DHT22;2619;47.868;11.892;2023-02-23T04:55:22;7.50;99.90
5200;DHT22;2619;47.868;11.892;2023-02-23T04:57:48;7.50;99.90
5200;DHT22;2619;47.868;11.892;2023-02-23T05:00:15;7.50;99.90
5200;DHT22;2619;47.868;11.892;2023-02-23T05:02:41;7.40;99.90
5200;DHT22;2619;47.868;11.892;2023-02-23T05:05:07;7.30;99.90
5200;DHT22;2619;47.868;11.892;2023-02-23T05:07:33;7.30;99.90
5200;DHT22;2619;47.868;11.892;2023-02-23T05:09:59;7.30;99.90
5200;DHT22;2619;47.868;11.892;2023-02-23T05:12:25;7.30;99.90
5200;DHT22;2619;47.868;11.892;2023-02-23T05:14:50;7.30;99.90
5200;DHT22;2619;47.868;11.892;2023-02-23T05:17:16;7.20;99.90
5200;DHT22;2619;47.868;11.892;2023-02-23T05:19:41;7.10;99.90
5200;DHT22;2619;47.868;11.892;2023-02-23T05:22:07;7.10;99.90
5200;DHT22;2619;47.868;11.892;2023-02-23T05:24:38;7.10;99.90
5200;DHT22;2619;47.868;11.892;2023-02-23T05:27:03;7.10;99.90
5200;DHT22;2619;47.868;11.892;2023-02-23T05:29:29;7.10;99.90
5200;DHT22;2619;47.868;11.892;2023-02-23T05:31:54;7.20;99.90
5200;DHT22;2619;47.868;11.892;2023-02-23T05:34:20;7.10;99.90
5200;DHT22;2619;47.868;11.892;2023-02-23T05:36:45;7.00;99.90
5200;DHT22;2619;47.868;11.892;2023-02-23T05:39:11;7.00;99.90
5200;DHT22;2619;47.868;11.892;2023-02-23T05:41:37;7.00;99.90
5200;DHT22;2619;47.868;11.892;2023-02-23T05:44:02;6.90;99.90
5200;DHT22;2619;47.868;11.892;2023-02-23T05:46:28;6.80;99.90
5200;DHT22;2619;47.868;11.892;2023-02-23T05:48:56;6.80;99.90
5200;DHT22;2619;47.868;11.892;2023-02-23T05:51:23;7.00;99.90
5200;DHT22;2619;47.868;11.892;2023-02-23T05:53:49;6.90;99.90
5200;DHT22;2619;47.868;11.892;2023-02-23T05:56:16;6.90;99.90
5200;DHT22;2619;47.868;11.892;2023-02-23T05:58:50;6.90;99.90
5200;DHT22;2619;47.868;11.892;2023-02-23T06:01:16;6.90;99.90
5200;DHT22;2619;47.868;11.892;2023-02-23T06:03:42;6.90;99.90
5200;DHT22;2619;47.868;11.892;2023-02-23T06:06:08;7.00;99.90
5200;DHT22;2619;47.868;11.892;2023-02-23T06:08:34;7.00;99.90
5200;DHT22;2619;47.868;11.892;2023-02-23T06:10:59;7.10;99.90
5200;DHT22;2619;47.868;11.892;2023-02-23T06:13:25;7.10;99.90
5200;DHT22;2619;47.868;11.892;2023-02-23T06:15:51;7.20;99.90
5200;DHT22;2619;47.868;11.892;2023-02-23T06:18:16;7.20;99.90
5200;DHT22;2619;47.868;11.892;2023-02-23T06:20:43;7.20;99.90
5200;DHT22;2619;47.868;11.892;2023-02-23T06:23:10;7.20;99.90
5200;DHT22;2619;47.868;11.892;2023-02-23T06:25:36;7.30;99.90
5200;DHT22;2619;47.868;11.892;2023-02-23T06:28:02;7.40;99.90
5200;DHT22;2619;47.868;11.892;2023-02-23T06:30:27;7.40;99.90
5200;DHT22;2619;47.868;11.892;2023-02-23T06:32:54;7.50;99.90
5200;DHT22;2619;47.868;11.892;2023-02-23T06:35:19;7.60;99.90
5200;DHT22;2619;47.868;11.892;2023-02-23T06:37:45;7.70;99.90
5200;DHT22;2619;47.868;11.892;2023-02-23T06:40:11;7.70;99.90
5200;DHT22;2619;47.868;11.892;2023-02-23T06:42:36;7.70;99.90
5200;DHT22;2619;47.868;11.892;2023-02-23T06:45:03;7.80;99.90
5200;DHT22;2619;47.868;11.892;2023-02-23T06:47:29;7.70;99.90
5200;DHT22;2619;47.868;11.892;2023-02-23T06:49:54;7.70;99.90
5200;DHT22;2619;47.868;11.892;2023-02-23T06:52:20;7.80;99.90
5200;DHT22;2619;47.868;11.892;2023-02-23T06:54:45;7.80;99.90
5200;DHT22;2619;47.868;11.892;2023-02-23T06:57:12;8.00;99.90
5200;DHT22;2619;47.868;11.892;2023-02-23T06:59:38;8.10;99.90
5200;DHT22;2619;47.868;11.892;2023-02-23T07:02:04;8.30;99.90
5200;DHT22;2619;47.868;11.892;2023-02-23T07:04:31;8.40;99.90
5200;DHT22;2619;47.868;11.892;2023-02-23T07:06:57;8.40;99.90
5200;DHT22;2619;47.868;11.892;2023-02-23T07:09:22;8.50;99.90
5200;DHT22;2619;47.868;11.892;2023-02-23T07:11:48;8.50;99.90
5200;DHT22;2619;47.868;11.892;2023-02-23T07:14:14;8.50;99.90
5200;DHT22;2619;47.868;11.892;2023-02-23T07:16:39;8.50;99.90
5200;DHT22;2619;47.868;11.892;2023-02-23T07:19:06;8.50;99.90
5200;DHT22;2619;47.868;11.892;2023-02-23T07:21:32;8.50;99.90
5200;DHT22;2619;47.868;11.892;2023-02-23T07:23:58;8.60;99.90
5200;DHT22;2619;47.868;11.892;2023-02-23T07:26:24;8.70;99.90
5200;DHT22;2619;47.868;11.892;2023-02-23T07:28:50;8.90;99.90
5200;DHT22;2619;47.868;11.892;2023-02-23T07:31:15;9.00;99.90
5200;DHT22;2619;47.868;11.892;2023-02-23T07:33:41;9.10;99.90
5200;DHT22;2619;47.868;11.892;2023-02-23T07:36:07;9.20;99.90
5200;DHT22;2619;47.868;11.892;2023-02-23T07:38:33;9.30;99.90
5200;DHT22;2619;47.868;11.892;2023-02-23T07:40:59;9.40;99.90
5200;DHT22;2619;47.868;11.892;2023-02-23T07:43:25;9.50;99.90
5200;DHT22;2619;47.868;11.892;2023-02-23T07:45:50;9.50;99.90
5200;DHT22;2619;47.868;11.892;2023-02-23T07:48:17;9.80;99.90
5200;DHT22;2619;47.868;11.892;2023-02-23T07:50:43;9.90;99.90
5200;DHT22;2619;47.868;11.892;2023-02-23T07:53:08;9.90;99.90
5200;DHT22;2619;47.868;11.892;2023-02-23T07:55:34;9.90;99.90
5200;DHT22;2619;47.868;11.892;2023-02-23T07:58:03;9.80;99.90
5200;DHT22;2619;47.868;11.892;2023-02-23T08:00:29;9.80;99.90
5200;DHT22;2619;47.868;11.892;2023-02-23T08:02:54;9.90;99.90
5200;DHT22;2619;47.868;11.892;2023-02-23T08:05:20;9.90;99.90
5200;DHT22;2619;47.868;11.892;2023-02-23T08:07:46;9.90;99.90
5200;DHT22;2619;47.868;11.892;2023-02-23T08:10:11;10.10;99.90
5200;DHT22;2619;47.868;11.892;2023-02-23T08:12:37;10.30;99.90
5200;DHT22;2619;47.868;11.892;2023-02-23T08:15:04;10.40;99.90
5200;DHT22;2619;47.868;11.892;2023-02-23T08:17:35;10.60;99.90
5200;DHT22;2619;47.868;11.892;2023-02-23T08:20:01;10.70;99.90
5200;DHT22;2619;47.868;11.892;2023-02-23T08:22:28;10.70;99.90
5200;DHT22;2619;47.868;11.892;2023-02-23T08:24:53;10.90;99.90
5200;DHT22;2619;47.868;11.892;2023-02-23T08:27:19;11.00;99.90
5200;DHT22;2619;47.868;11.892;2023-02-23T08:29:45;11.10;99.90
5200;DHT22;2619;47.868;11.892;2023-02-23T08:32:10;11.10;99.90
5200;DHT22;2619;47.868;11.892;2023-02-23T08:34:40;11.20;99.90
5200;DHT22;2619;47.868;11.892;2023-02-23T08:37:07;11.10;99.90
5200;DHT22;2619;47.868;11.892;2023-02-23T08:39:32;11.20;99.90
5200;DHT22;2619;47.868;11.892;2023-02-23T08:41:58;11.40;99.90
5200;DHT22;2619;47.868;11.892;2023-02-23T08:44:24;11.40;99.90
5200;DHT22;2619;47.868;11.892;2023-02-23T08:46:49;11.50;99.90
5200;DHT22;2619;47.868;11.892;2023-02-23T08:49:15;11.50;99.90
5200;DHT22;2619;47.868;11.892;2023-02-23T08:51:41;11.40;99.90
5200;DHT22;2619;47.868;11.892;2023-02-23T08:54:07;11.30;99.90
5200;DHT22;2619;47.868;11.892;2023-02-23T08:56:38;11.20;99.90
5200;DHT22;2619;47.868;11.892;2023-02-23T08:59:04;11.10;99.90
5200;DHT22;2619;47.868;11.892;2023-02-23T09:01:29;10.80;99.90
5200;DHT22;2619;47.868;11.892;2023-02-23T09:03:55;10.70;99.90
5200;DHT22;2619;47.868;11.892;2023-02-23T09:06:23;10.70;99.90
5200;DHT22;2619;47.868;11.892;2023-02-23T09:08:50;10.60;99.90
5200;DHT22;2619;47.868;11.892;2023-02-23T09:11:16;10.40;99.90
5200;DHT22;2619;47.868;11.892;2023-02-23T09:13:42;10.40;99.90
5200;DHT22;2619;47.868;11.892;2023-02-23T09:16:08;10.40;99.90
5200;DHT22;2619;47.868;11.892;2023-02-23T09:18:34;10.40;99.90
5200;DHT22;2619;47.868;11.892;2023-02-23T09:21:03;10.70;99.90
5200;DHT22;2619;47.868;11.892;2023-02-23T09:23:31;11.00;99.90
5200;DHT22;2619;47.868;11.892;2023-02-23T09:25:56;11.20;99.90
5200;DHT22;2619;47.868;11.892;2023-02-23T09:28:26;11.20;99.90
5200;DHT22;2619;47.868;11.892;2023-02-23T09:30:55;11.30;99.90
5200;DHT22;2619;47.868;11.892;2023-02-23T09:33:20;11.40;99.90
5200;DHT22;2619;47.868;11.892;2023-02-23T09:35:46;11.50;99.90
5200;DHT22;2619;47.868;11.892;2023-02-23T09:38:12;11.60;99.90
5200;DHT22;2619;47.868;11.892;2023-02-23T09:40:47;11.70;99.90
5200;DHT22;2619;47.868;11.892;2023-02-23T09:43:21;11.80;99.90
5200;DHT22;2619;47.868;11.892;2023-02-23T09:48:46;11.80;99.90
5200;DHT22;2619;47.868;11.892;2023-02-23T09:51:17;11.90;99.90
5200;DHT22;2619;47.868;11.892;2023-02-23T09:53:55;12.10;99.90
5200;DHT22;2619;47.868;11.892;2023-02-23T09:56:43;12.20;99.90
5200;DHT22;2619;47.868;11.892;2023-02-23T09:59:14;12.30;99.90
5200;DHT22;2619;47.868;11.892;2023-02-23T10:04:13;12.40;99.90
5200;DHT22;2619;47.868;11.892;2023-02-23T10:06:44;12.50;99.90
5200;DHT22;2619;47.868;11.892;2023-02-23T10:23:04;13.40;99.90
5200;DHT22;2619;47.868;11.892;2023-02-23T10:25:35;13.50;99.90
5200;DHT22;2619;47.868;11.892;2023-02-23T10:28:03;13.60;99.90
5200;DHT22;2619;47.868;11.892;2023-02-23T10:30:33;13.90;99.90
5200;DHT22;2619;47.868;11.892;2023-02-23T10:35:44;14.50;99.90
5200;DHT22;2619;47.868;11.892;2023-02-23T10:38:15;14.70;99.90
5200;DHT22;2619;47.868;11.892;2023-02-23T10:40:43;14.90;99.90
5200;DHT22;2619;47.868;11.892;2023-02-23T10:43:11;14.90;99.90
5200;DHT22;2619;47.868;11.892;2023-02-23T10:45:46;14.60;99.90
5200;DHT22;2619;47.868;11.892;2023-02-23T10:48:23;14.50;99.90
5200;DHT22;2619;47.868;11.892;2023-02-23T10:50:52;14.70;99.90
5200;DHT22;2619;47.868;11.892;2023-02-23T10:53:23;14.60;99.90
5200;DHT22;2619;47.868;11.892;2023-02-23T10:56:08;14.50;99.90
5200;DHT22;2619;47.868;11.892;2023-02-23T10:58:54;14.20;99.90
5200;DHT22;2619;47.868;11.892;2023-02-23T11:01:38;13.70;99.90
5200;DHT22;2619;47.868;11.892;2023-02-23T11:04:32;13.40;99.90
5200;DHT22;2619;47.868;11.892;2023-02-23T11:07:17;13.30;99.90
5200;DHT22;2619;47.868;11.892;2023-02-23T11:09:43;13.20;99.90
5200;DHT22;2619;47.868;11.892;2023-02-23T11:12:36;13.10;99.90
5200;DHT22;2619;47.868;11.892;2023-02-23T11:17:55;13.00;99.90
5200;DHT22;2619;47.868;11.892;2023-02-23T11:20:34;13.00;99.90
5200;DHT22;2619;47.868;11.892;2023-02-23T11:23:23;13.00;99.90
5200;DHT22;2619;47.868;11.892;2023-02-23T11:25:58;12.90;99.90
5200;DHT22;2619;47.868;11.892;2023-02-23T11:28:31;12.90;99.90
5200;DHT22;2619;47.868;11.892;2023-02-23T11:31:18;13.10;99.90
5200;DHT22;2619;47.868;11.892;2023-02-23T11:33:45;13.00;99.90
5200;DHT22;2619;47.868;11.892;2023-02-23T11:41:27;13.50;99.90
5200;DHT22;2619;47.868;11.892;2023-02-23T11:43:58;13.50;99.90
5200;DHT22;2619;47.868;11.892;2023-02-23T11:46:25;13.50;99.90
5200;DHT22;2619;47.868;11.892;2023-02-23T11:49:04;13.70;99.90
5200;DHT22;2619;47.868;11.892;2023-02-23T11:51:37;13.70;99.90
5200;DHT22;2619;47.868;11.892;2023-02-23T11:54:04;13.80;99.90
5200;DHT22;2619;47.868;11.892;2023-02-23T11:56:32;13.90;99.90
5200;DHT22;2619;47.868;11.892;2023-02-23T11:59:06;14.10;99.90
5200;DHT22;2619;47.868;11.892;2023-02-23T12:01:42;14.00;99.90
5200;DHT22;2619;47.868;11.892;2023-02-23T12:04:29;13.90;99.90
5200;DHT22;2619;47.868;11.892;2023-02-23T12:09:56;12.90;99.90
5200;DHT22;2619;47.868;11.892;2023-02-23T12:12:26;12.70;99.90
5200;DHT22;2619;47.868;11.892;2023-02-23T12:14:57;12.40;99.90
5200;DHT22;2619;47.868;11.892;2023-02-23T12:17:30;12.60;99.90
5200;DHT22;2619;47.868;11.892;2023-02-23T12:20:11;12.70;99.90
5200;DHT22;2619;47.868;11.892;2023-02-23T12:22:45;12.70;99.90
5200;DHT22;2619;47.868;11.892;2023-02-23T12:31:19;13.00;99.90
5200;DHT22;2619;47.868;11.892;2023-02-23T12:34:08;13.00;99.90
5200;DHT22;2619;47.868;11.892;2023-02-23T12:36:44;13.20;99.90
5200;DHT22;2619;47.868;11.892;2023-02-23T12:39:30;13.40;99.90
5200;DHT22;2619;47.868;11.892;2023-02-23T12:42:23;13.60;99.90
5200;DHT22;2619;47.868;11.892;2023-02-23T12:44:55;13.80;99.90
5200;DHT22;2619;47.868;11.892;2023-02-23T12:47:48;13.80;99.90
5200;DHT22;2619;47.868;11.892;2023-02-23T12:52:56;13.70;99.90
5200;DHT22;2619;47.868;11.892;2023-02-23T12:56:02;13.70;99.90
5200;DHT22;2619;47.868;11.892;2023-02-23T13:04:45;14.10;99.90
5200;DHT22;2619;47.868;11.892;2023-02-23T13:21:26;13.80;99.90
5200;DHT22;2619;47.868;11.892;2023-02-23T13:27:09;13.90;99.90
5200;DHT22;2619;47.868;11.892;2023-02-23T13:29:41;13.90;99.90
5200;DHT22;2619;47.868;11.892;2023-02-23T13:32:13;14.10;99.90
5200;DHT22;2619;47.868;11.892;2023-02-23T13:34:44;14.20;99.90
5200;DHT22;2619;47.868;11.892;2023-02-23T13:37:16;14.20;99.90
5200;DHT22;2619;47.868;11.892;2023-02-23T13:47:35;13.80;99.90
5200;DHT22;2619;47.868;11.892;2023-02-23T13:52:37;13.70;99.90
5200;DHT22;2619;47.868;11.892;2023-02-23T13:55:34;13.60;99.90
5200;DHT22;2619;47.868;11.892;2023-02-23T13:58:10;13.20;99.90
5200;DHT22;2619;47.868;11.892;2023-02-23T14:00:39;13.20;99.90
5200;DHT22;2619;47.868;11.892;2023-02-23T14:03:07;13.10;99.90
5200;DHT22;2619;47.868;11.892;2023-02-23T14:05:42;13.10;99.90
5200;DHT22;2619;47.868;11.892;2023-02-23T14:08:25;13.00;99.90
5200;DHT22;2619;47.868;11.892;2023-02-23T14:10:52;12.90;99.90
5200;DHT22;2619;47.868;11.892;2023-02-23T14:15:47;13.00;99.90
5200;DHT22;2619;47.868;11.892;2023-02-23T14:20:55;13.00;99.90
5200;DHT22;2619;47.868;11.892;2023-02-23T14:26:10;12.80;99.90
5200;DHT22;2619;47.868;11.892;2023-02-23T14:43:57;12.90;99.90
5200;DHT22;2619;47.868;11.892;2023-02-23T14:46:25;12.90;99.90
5200;DHT22;2619;47.868;11.892;2023-02-23T14:49:09;13.00;99.90
5200;DHT22;2619;47.868;11.892;2023-02-23T14:51:43;12.90;99.90
5200;DHT22;2619;47.868;11.892;2023-02-23T14:54:21;12.90;99.90
5200;DHT22;2619;47.868;11.892;2023-02-23T14:56:49;12.90;99.90
5200;DHT22;2619;47.868;11.892;2023-02-23T14:59:21;12.80;99.90
5200;DHT22;2619;47.868;11.892;2023-02-23T15:01:48;12.80;99.90
5200;DHT22;2619;47.868;11.892;2023-02-23T15:04:26;12.70;99.90
5200;DHT22;2619;47.868;11.892;2023-02-23T15:06:56;12.60;99.90
5200;DHT22;2619;47.868;11.892;2023-02-23T15:09:39;12.70;99.90
5200;DHT22;2619;47.868;11.892;2023-02-23T15:12:19;12.80;99.90
5200;DHT22;2619;47.868;11.892;2023-02-23T15:14:47;12.80;99.90
5200;DHT22;2619;47.868;11.892;2023-02-23T15:17:23;12.90;99.90
5200;DHT22;2619;47.868;11.892;2023-02-23T15:19:54;13.00;99.90
5200;DHT22;2619;47.868;11.892;2023-02-23T15:22:25;13.00;99.90
5200;DHT22;2619;47.868;11.892;2023-02-23T15:24:51;13.00;99.90
5200;DHT22;2619;47.868;11.892;2023-02-23T15:27:22;13.10;99.90
5200;DHT22;2619;47.868;11.892;2023-02-23T15:29:50;13.10;99.90
5200;DHT22;2619;47.868;11.892;2023-02-23T15:32:19;13.10;99.90
5200;DHT22;2619;47.868;11.892;2023-02-23T15:34:45;13.10;99.90
5200;DHT22;2619;47.868;11.892;2023-02-23T15:39:52;12.90;99.90
5200;DHT22;2619;47.868;11.892;2023-02-23T15:42:24;12.90;99.90
5200;DHT22;2619;47.868;11.892;2023-02-23T15:44:59;12.70;99.90
5200;DHT22;2619;47.868;11.892;2023-02-23T15:47:30;12.60;99.90
5200;DHT22;2619;47.868;11.892;2023-02-23T15:50:05;12.50;99.90
5200;DHT22;2619;47.868;11.892;2023-02-23T15:52:31;12.50;99.90
5200;DHT22;2619;47.868;11.892;2023-02-23T15:55:26;12.50;99.90
5200;DHT22;2619;47.868;11.892;2023-02-23T15:57:53;12.40;99.90
5200;DHT22;2619;47.868;11.892;2023-02-23T16:00:26;12.30;99.90
5200;DHT22;2619;47.868;11.892;2023-02-23T16:02:59;12.20;99.90
5200;DHT22;2619;47.868;11.892;2023-02-23T16:05:25;12.10;99.90
5200;DHT22;2619;47.868;11.892;2023-02-23T16:08:02;12.00;99.90
5200;DHT22;2619;47.868;11.892;2023-02-23T16:10:42;11.90;99.90
5200;DHT22;2619;47.868;11.892;2023-02-23T16:13:12;11.90;99.90
5200;DHT22;2619;47.868;11.892;2023-02-23T16:15:39;11.80;99.90
5200;DHT22;2619;47.868;11.892;2023-02-23T16:18:11;11.70;99.90
5200;DHT22;2619;47.868;11.892;2023-02-23T16:20:44;11.50;99.90
5200;DHT22;2619;47.868;11.892;2023-02-23T16:25:53;11.30;99.90
5200;DHT22;2619;47.868;11.892;2023-02-23T16:28:20;11.20;99.90
5200;DHT22;2619;47.868;11.892;2023-02-23T16:31:00;11.20;99.90
5200;DHT22;2619;47.868;11.892;2023-02-23T16:36:36;11.00;99.90
5200;DHT22;2619;47.868;11.892;2023-02-23T16:39:09;10.90;99.90
5200;DHT22;2619;47.868;11.892;2023-02-23T16:41:35;10.70;99.90
5200;DHT22;2619;47.868;11.892;2023-02-23T16:44:03;10.70;99.90
5200;DHT22;2619;47.868;11.892;2023-02-23T16:49:15;10.50;99.90
5200;DHT22;2619;47.868;11.892;2023-02-23T16:51:41;10.40;99.90
5200;DHT22;2619;47.868;11.892;2023-02-23T16:54:07;10.30;99.90
5200;DHT22;2619;47.868;11.892;2023-02-23T16:56:33;10.20;99.90
5200;DHT22;2619;47.868;11.892;2023-02-23T16:59:01;10.20;99.90
5200;DHT22;2619;47.868;11.892;2023-02-23T17:01:28;10.10;99.90
5200;DHT22;2619;47.868;11.892;2023-02-23T17:03:53;10.10;99.90
5200;DHT22;2619;47.868;11.892;2023-02-23T17:06:20;10.10;99.90
5200;DHT22;2619;47.868;11.892;2023-02-23T17:08:46;10.00;99.90
5200;DHT22;2619;47.868;11.892;2023-02-23T17:11:12;10.00;99.90
5200;DHT22;2619;47.868;11.892;2023-02-23T17:13:37;10.00;99.90
5200;DHT22;2619;47.868;11.892;2023-02-23T17:16:06;9.90;99.90
5200;DHT22;2619;47.868;11.892;2023-02-23T17:18:36;9.80;99.90
5200;DHT22;2619;47.868;11.892;2023-02-23T17:21:05;9.80;99.90
5200;DHT22;2619;47.868;11.892;2023-02-23T17:23:34;9.70;99.90
5200;DHT22;2619;47.868;11.892;2023-02-23T17:26:10;9.60;99.90
5200;DHT22;2619;47.868;11.892;2023-02-23T17:28:36;9.50;99.90
5200;DHT22;2619;47.868;11.892;2023-02-23T17:31:02;9.40;99.90
5200;DHT22;2619;47.868;11.892;2023-02-23T17:33:29;9.30;99.90
5200;DHT22;2619;47.868;11.892;2023-02-23T17:36:01;9.30;99.90
5200;DHT22;2619;47.868;11.892;2023-02-23T17:38:27;9.30;99.90
5200;DHT22;2619;47.868;11.892;2023-02-23T17:41:09;9.30;99.90
5200;DHT22;2619;47.868;11.892;2023-02-23T17:43:35;9.10;99.90
5200;DHT22;2619;47.868;11.892;2023-02-23T17:46:04;9.00;99.90
5200;DHT22;2619;47.868;11.892;2023-02-23T17:48:30;9.00;99.90
5200;DHT22;2619;47.868;11.892;2023-02-23T17:51:01;9.00;99.90
5200;DHT22;2619;47.868;11.892;2023-02-23T17:53:28;9.00;99.90
5200;DHT22;2619;47.868;11.892;2023-02-23T17:55:54;9.10;99.90
5200;DHT22;2619;47.868;11.892;2023-02-23T17:58:20;9.00;99.90
5200;DHT22;2619;47.868;11.892;2023-02-23T18:00:48;9.00;99.90
5200;DHT22;2619;47.868;11.892;2023-02-23T18:03:14;9.00;99.90
5200;DHT22;2619;47.868;11.892;2023-02-23T18:05:40;9.00;99.90
5200;DHT22;2619;47.868;11.892;2023-02-23T18:08:06;8.90;99.90
5200;DHT22;2619;47.868;11.892;2023-02-23T18:10:31;8.70;99.90
5200;DHT22;2619;47.868;11.892;2023-02-23T18:13:01;8.60;99.90
5200;DHT22;2619;47.868;11.892;2023-02-23T18:15:26;8.50;99.90
5200;DHT22;2619;47.868;11.892;2023-02-23T18:17:52;8.40;99.90
5200;DHT22;2619;47.868;11.892;2023-02-23T18:20:19;8.30;99.90
5200;DHT22;2619;47.868;11.892;2023-02-23T18:22:44;8.10;99.90
5200;DHT22;2619;47.868;11.892;2023-02-23T18:25:22;7.80;99.90
5200;DHT22;2619;47.868;11.892;2023-02-23T18:27:50;7.40;99.90
5200;DHT22;2619;47.868;11.892;2023-02-23T18:30:18;7.10;99.90
5200;DHT22;2619;47.868;11.892;2023-02-23T18:32:44;6.90;99.90
5200;DHT22;2619;47.868;11.892;2023-02-23T18:35:10;6.70;99.90